This is the latest recevied weather packets stored in our database for station/object 7L2IWN-13. If no packets are shown the sender has not sent any weather packets the latest 10 day(s).
| Time | Temp. | Humidity | Pressure | Rain* | Wind** | Luminosity | Snow |
|---|---|---|---|---|---|---|---|
| 1777377501 | 16.11° C | 90% | 1007.9 hPa | 0 mm | - | - | - |
| 1777376062 | 16.67° C | 91% | 1007.7 hPa | 0 mm | - | - | - |
| 1777375341 | 16.67° C | 90% | 1007.6 hPa | 0 mm | - | - | - |
| 1777373901 | 17.22° C | 90% | 1007.4 hPa | 0 mm | - | - | - |
| 1777372461 | 17.22° C | 88% | 1007.2 hPa | 0 mm | - | - | - |
| 1777371741 | 17.78° C | 88% | 1006.8 hPa | 0 mm | - | - | - |
| 1777371021 | 18.33° C | 85% | 1006.8 hPa | 0 mm | - | - | - |
| 1777370301 | 18.33° C | 85% | 1006.6 hPa | 0 mm | - | - | - |
| 1777368861 | 19.44° C | 82% | 1006.6 hPa | 0 mm | - | - | - |
| 1777367422 | 20° C | 79% | 1006.2 hPa | 0 mm | - | - | - |
| 1777365981 | 22.78° C | 72% | 1006.4 hPa | 0 mm | - | - | - |
| 1777365263 | 23.89° C | 67% | 1006.2 hPa | 0 mm | - | - | - |
| 1777364540 | 23.89° C | 63% | 1006.2 hPa | 0 mm | - | - | - |
| 1777363822 | 23.89° C | 62% | 1006 hPa | 0 mm | - | - | - |
| 1777363102 | 24.44° C | 59% | 1006 hPa | 0 mm | - | - | - |
| 1777362381 | 24.44° C | 60% | 1006 hPa | 0 mm | - | - | - |
| 1777361661 | 24.44° C | 61% | 1005.9 hPa | 0 mm | - | - | - |
| 1777360940 | 23.89° C | 64% | 1005.8 hPa | 0 mm | - | - | - |
| 1777360222 | 24.44° C | 60% | 1005.9 hPa | 0 mm | - | - | - |
| 1777359501 | 24.44° C | 60% | 1006 hPa | 0 mm | - | - | - |
| 1777358781 | 24.44° C | 60% | 1006 hPa | 0 mm | - | - | - |
| 1777358060 | 25° C | 58% | 1006 hPa | 0 mm | - | - | - |
| 1777357340 | 24.44° C | 61% | 1006 hPa | 0 mm | - | - | - |
| 1777356621 | 24.44° C | 61% | 1006.2 hPa | 0 mm | - | - | - |
| 1777355900 | 24.44° C | 60% | 1006.2 hPa | 0 mm | - | - | - |
* Rain latest hour (hover to see other rain measurements)
** Current wind speed in m/s (hover to see current wind gust speed)